createdAt,value
2018-05-06T00:00:52.868Z,49.85
2018-05-06T00:01:52.892Z,49.99
2018-05-06T00:02:52.994Z,50.21
2018-05-06T00:03:52.949Z,50.18
2018-05-06T00:04:52.864Z,49.95
2018-05-06T00:05:53.313Z,50.09
2018-05-06T00:06:52.853Z,49.86
2018-05-06T00:07:52.962Z,49.91
2018-05-06T00:08:52.864Z,49.9
2018-05-06T00:09:52.897Z,49.81
2018-05-06T00:10:52.895Z,50.05
2018-05-06T00:11:52.841Z,50.26
2018-05-06T00:12:52.857Z,50.16
2018-05-06T00:13:52.850Z,50.2
2018-05-06T00:14:52.906Z,49.99
2018-05-06T00:15:52.884Z,49.95
2018-05-06T00:16:52.854Z,50.2
2018-05-06T00:17:52.920Z,50.26
2018-05-06T00:18:52.859Z,50.33
2018-05-06T00:19:52.865Z,50.29
2018-05-06T00:20:52.839Z,50.32
2018-05-06T00:21:52.845Z,50.25
2018-05-06T00:22:52.822Z,50.37
2018-05-06T00:23:52.848Z,50.14
2018-05-06T00:24:52.858Z,50.13
2018-05-06T00:25:52.895Z,50.26
2018-05-06T00:26:52.862Z,50.17
2018-05-06T00:27:52.855Z,50.11
2018-05-06T00:28:52.870Z,50.16
2018-05-06T00:29:52.849Z,50.15
2018-05-06T00:30:52.839Z,50.36
2018-05-06T00:31:52.859Z,50.48
2018-05-06T00:32:57.775Z,50.43
2018-05-06T00:33:52.835Z,50.28
2018-05-06T00:34:52.848Z,50.34
2018-05-06T00:35:52.838Z,50.5
2018-05-06T00:36:52.860Z,50.53
2018-05-06T00:37:52.854Z,50.41
2018-05-06T00:38:52.867Z,50.54
2018-05-06T00:39:52.843Z,50.53
2018-05-06T00:40:52.880Z,50.56
2018-05-06T00:41:52.835Z,50.51
2018-05-06T00:42:52.835Z,50.39
2018-05-06T00:43:52.828Z,50.72
2018-05-06T00:44:52.939Z,50.66
2018-05-06T00:45:52.859Z,50.37
2018-05-06T00:46:52.822Z,50.32
2018-05-06T00:47:52.984Z,50.69
2018-05-06T00:48:53.554Z,50.7
2018-05-06T00:49:53.708Z,50.46
2018-05-06T00:50:53.602Z,50.45
2018-05-06T00:51:53.578Z,50.43
2018-05-06T00:52:53.601Z,50.45
2018-05-06T00:53:53.656Z,50.38
2018-05-06T00:54:53.726Z,50.46
2018-05-06T00:55:53.593Z,50.36
2018-05-06T00:56:53.517Z,50.66
2018-05-06T00:57:53.373Z,50.63
2018-05-06T00:58:53.557Z,50.54
2018-05-06T00:59:53.540Z,50.55
2018-05-06T01:00:53.547Z,50.62
2018-05-06T01:01:53.616Z,50.52
2018-05-06T01:02:53.574Z,50.61
2018-05-06T01:03:53.628Z,50.38
2018-05-06T01:04:53.634Z,50.3
2018-05-06T01:05:53.637Z,50.89
2018-05-06T01:06:53.569Z,50.93
2018-05-06T01:07:53.652Z,50.79
2018-05-06T01:08:53.643Z,50.58
2018-05-06T01:09:53.664Z,50.42
2018-05-06T01:10:53.571Z,50.63
2018-05-06T01:11:53.540Z,50.72
2018-05-06T01:12:53.579Z,50.45
2018-05-06T01:13:53.848Z,50.44
2018-05-06T01:14:53.595Z,50.4
2018-05-06T01:15:53.609Z,50.44
2018-05-06T01:16:53.629Z,50.33
2018-05-06T01:17:53.616Z,50.38
2018-05-06T01:18:53.713Z,50.52
2018-05-06T01:19:53.584Z,50.59
2018-05-06T01:20:53.862Z,50.74
2018-05-06T01:21:53.542Z,50.87
2018-05-06T01:22:53.544Z,50.81
2018-05-06T01:23:53.601Z,50.59
2018-05-06T01:24:53.665Z,50.75
2018-05-06T01:25:53.541Z,50.99
2018-05-06T01:26:53.575Z,51.29
2018-05-06T01:27:53.589Z,51.49
2018-05-06T01:28:53.533Z,51.37
2018-05-06T01:29:53.598Z,51.11
2018-05-06T01:30:53.578Z,51.2
2018-05-06T01:31:53.570Z,51.16
2018-05-06T01:32:53.383Z,51.38
2018-05-06T01:33:53.624Z,51.43
2018-05-06T01:34:53.642Z,51.78
2018-05-06T01:35:53.540Z,51.74
2018-05-06T01:36:53.556Z,51.58
2018-05-06T01:37:53.621Z,51.58
2018-05-06T01:38:53.534Z,51.6
2018-05-06T01:39:53.561Z,51.7
2018-05-06T01:40:53.607Z,51.3
2018-05-06T01:41:53.538Z,51.48
2018-05-06T01:42:53.571Z,51.29
2018-05-06T01:43:53.531Z,51.28
2018-05-06T01:44:53.597Z,51.12
2018-05-06T01:45:53.516Z,51.22
2018-05-06T01:46:53.518Z,51.13
2018-05-06T01:47:53.536Z,51.22
2018-05-06T01:48:52.837Z,51.07
2018-05-06T01:49:52.887Z,51.16
2018-05-06T01:50:54.439Z,51.09
2018-05-06T01:51:53.625Z,51
2018-05-06T01:52:52.848Z,51.09
2018-05-06T01:53:52.814Z,51.11
2018-05-06T01:54:52.933Z,51.06
2018-05-06T01:55:52.847Z,51.07
2018-05-06T01:56:52.826Z,51.1
2018-05-06T01:57:52.909Z,51.18
2018-05-06T01:58:52.812Z,50.95
2018-05-06T01:59:52.800Z,50.9
2018-05-06T02:00:54.315Z,51.1
2018-05-06T02:01:52.877Z,50.94
2018-05-06T02:02:52.841Z,50.88
2018-05-06T02:03:52.853Z,50.75
2018-05-06T02:04:52.936Z,50.68
2018-05-06T02:05:52.845Z,50.75
2018-05-06T02:06:52.815Z,50.81
2018-05-06T02:07:52.838Z,50.75
2018-05-06T02:08:52.848Z,50.87
2018-05-06T02:09:52.841Z,50.82
2018-05-06T02:10:52.852Z,51.01
2018-05-06T02:11:52.852Z,51.08
2018-05-06T02:12:52.874Z,51.05
2018-05-06T02:13:52.853Z,51
2018-05-06T02:14:52.922Z,50.96
2018-05-06T02:15:52.873Z,50.96
2018-05-06T02:16:52.824Z,51.06
2018-05-06T02:17:52.825Z,50.94
2018-05-06T02:18:52.848Z,50.9
2018-05-06T02:19:52.970Z,50.96
2018-05-06T02:20:52.861Z,50.95
2018-05-06T02:21:52.876Z,50.75
2018-05-06T02:22:52.837Z,50.89
2018-05-06T02:23:52.894Z,50.86
2018-05-06T02:24:52.841Z,50.85
2018-05-06T02:25:52.936Z,50.69
2018-05-06T02:26:52.826Z,50.86
2018-05-06T02:27:53.658Z,50.64
2018-05-06T02:28:52.843Z,50.7
2018-05-06T02:29:52.836Z,50.8
2018-05-06T02:30:52.869Z,50.67
2018-05-06T02:31:52.984Z,50.63
2018-05-06T02:32:52.844Z,50.33
2018-05-06T02:33:52.845Z,50.26
2018-05-06T02:34:53.007Z,50.47
2018-05-06T02:35:52.832Z,50.25
2018-05-06T02:36:52.830Z,50.31
2018-05-06T02:37:52.875Z,50.36
2018-05-06T02:38:52.824Z,50.38
2018-05-06T02:39:52.848Z,50.32
2018-05-06T02:40:52.836Z,50.46
2018-05-06T02:41:52.857Z,50.35
2018-05-06T02:42:52.838Z,50.37
2018-05-06T02:43:52.864Z,50.19
2018-05-06T02:44:52.853Z,50.15
2018-05-06T02:45:52.827Z,50.32
2018-05-06T02:46:52.845Z,50.44
2018-05-06T02:47:52.883Z,50.39
2018-05-06T02:48:52.870Z,50.38
2018-05-06T02:49:53.926Z,50.33
2018-05-06T02:50:52.833Z,50.56
2018-05-06T02:51:52.837Z,50.55
2018-05-06T02:52:52.843Z,50.59
2018-05-06T02:53:52.843Z,50.58
2018-05-06T02:54:52.873Z,50.37
2018-05-06T02:55:52.836Z,50.32
2018-05-06T02:56:52.876Z,50.3
2018-05-06T02:57:52.872Z,50.25
2018-05-06T02:58:52.864Z,50.21
2018-05-06T02:59:52.960Z,50.15
2018-05-06T03:00:52.866Z,50.29
2018-05-06T03:01:52.879Z,50.09
2018-05-06T03:02:52.860Z,49.97
2018-05-06T03:03:52.963Z,50.32
2018-05-06T03:04:53.042Z,50.28
2018-05-06T03:05:52.884Z,50.27
2018-05-06T03:06:52.882Z,50.1
2018-05-06T03:07:52.863Z,50.21
2018-05-06T03:08:52.857Z,50.07
2018-05-06T03:09:52.871Z,50.01
2018-05-06T03:10:52.878Z,50
2018-05-06T03:11:52.919Z,50.06
2018-05-06T03:12:52.888Z,49.87
2018-05-06T03:13:52.965Z,49.85
2018-05-06T03:14:52.939Z,49.83
2018-05-06T03:15:52.877Z,50.07
2018-05-06T03:16:52.880Z,50.38
2018-05-06T03:17:52.923Z,50.22
2018-05-06T03:18:52.967Z,50.5
2018-05-06T03:19:52.905Z,50.12
2018-05-06T03:20:52.920Z,50.53
2018-05-06T03:21:52.886Z,50.63
2018-05-06T03:22:52.856Z,50.53
2018-05-06T03:23:52.865Z,50.4
2018-05-06T03:24:52.945Z,50.19
2018-05-06T03:25:52.964Z,50.44
2018-05-06T03:26:52.949Z,50.64
2018-05-06T03:27:52.890Z,50.47
2018-05-06T03:28:52.976Z,50.4
2018-05-06T03:29:52.901Z,50.44
2018-05-06T03:30:52.880Z,50.37
2018-05-06T03:31:52.911Z,50.33
2018-05-06T03:32:52.893Z,50.17
2018-05-06T03:33:52.928Z,50.39
2018-05-06T03:34:52.903Z,50.39
2018-05-06T03:35:52.884Z,50.37
2018-05-06T03:36:52.893Z,50.15
2018-05-06T03:37:52.929Z,49.82
2018-05-06T03:38:52.871Z,49.7
2018-05-06T03:39:52.940Z,49.76
2018-05-06T03:40:52.982Z,49.61
2018-05-06T03:41:52.877Z,49.51
2018-05-06T03:42:52.878Z,49.6
2018-05-06T03:43:52.892Z,49.51
2018-05-06T03:44:52.911Z,49.38
2018-05-06T03:45:52.883Z,49.45
2018-05-06T03:46:52.908Z,49.46
2018-05-06T03:47:52.912Z,49.53
2018-05-06T03:48:52.880Z,48.94
2018-05-06T03:49:52.938Z,49.1
2018-05-06T03:50:52.910Z,49.13
2018-05-06T03:51:52.891Z,48.79
2018-05-06T03:52:52.972Z,48.43
2018-05-06T03:53:52.911Z,48.46
2018-05-06T03:54:52.907Z,48.59
2018-05-06T03:55:52.905Z,48.92
2018-05-06T03:56:52.857Z,48.79
2018-05-06T03:57:52.916Z,48.79
2018-05-06T03:58:52.869Z,48.46
2018-05-06T03:59:52.898Z,48.47
2018-05-06T04:00:52.987Z,48.48
2018-05-06T04:01:52.885Z,48.64
2018-05-06T04:02:52.886Z,48.31
2018-05-06T04:03:52.938Z,48.62
2018-05-06T04:04:52.905Z,48.42
2018-05-06T04:05:53.406Z,48.61
2018-05-06T04:06:52.920Z,48.6
2018-05-06T04:07:52.959Z,48.53
2018-05-06T04:08:52.906Z,48.54
2018-05-06T04:09:52.886Z,48.49
2018-05-06T04:10:53.058Z,48.38
2018-05-06T04:11:53.170Z,48.07
2018-05-06T04:12:52.900Z,48.38
2018-05-06T04:13:52.958Z,48.38
2018-05-06T04:14:52.898Z,47.94
2018-05-06T04:15:52.986Z,47.93
2018-05-06T04:16:52.871Z,47.94
2018-05-06T04:17:52.938Z,48.09
2018-05-06T04:18:52.934Z,47.83
2018-05-06T04:19:52.875Z,47.55
2018-05-06T04:20:52.936Z,47.76
2018-05-06T04:21:52.868Z,47.72
2018-05-06T04:22:52.895Z,47.7
2018-05-06T04:23:52.950Z,47.62
2018-05-06T04:24:52.949Z,47.62
2018-05-06T04:25:52.945Z,47.6
2018-05-06T04:26:53.196Z,47.29
2018-05-06T04:27:52.967Z,47.46
2018-05-06T04:28:52.890Z,47.41
2018-05-06T04:29:52.903Z,47.44
2018-05-06T04:30:52.965Z,47.45
2018-05-06T04:31:52.888Z,47.04
2018-05-06T04:32:53.095Z,47.22
2018-05-06T04:33:52.975Z,47.19
2018-05-06T04:34:52.922Z,47.39
2018-05-06T04:35:52.927Z,46.88
2018-05-06T04:36:52.946Z,46.97
2018-05-06T04:37:52.964Z,47.14
2018-05-06T04:38:52.890Z,47.2
2018-05-06T04:39:52.953Z,47.13
2018-05-06T04:40:52.947Z,47.37
2018-05-06T04:41:52.923Z,47.47
2018-05-06T04:42:52.912Z,47.3
2018-05-06T04:43:52.934Z,47.34
2018-05-06T04:44:53.014Z,47.4
2018-05-06T04:45:52.959Z,47.38
2018-05-06T04:46:52.936Z,47.24
2018-05-06T04:47:52.930Z,47.26
2018-05-06T04:48:52.920Z,47.03
2018-05-06T04:49:52.965Z,47.07
2018-05-06T04:50:53.126Z,47.12
2018-05-06T04:51:52.893Z,47.2
2018-05-06T04:52:52.931Z,47.37
2018-05-06T04:53:52.908Z,47.38
2018-05-06T04:54:52.905Z,47.5
2018-05-06T04:55:52.938Z,47.82
2018-05-06T04:56:52.909Z,47.9
2018-05-06T04:57:52.910Z,47.75
2018-05-06T04:58:52.900Z,47.47
2018-05-06T04:59:52.916Z,47.46
2018-05-06T05:00:52.927Z,47.39
2018-05-06T05:01:52.909Z,47.06
2018-05-06T05:02:52.902Z,46.93
2018-05-06T05:03:52.923Z,46.93
2018-05-06T05:04:52.894Z,46.88
2018-05-06T05:05:52.945Z,47.14
2018-05-06T05:06:52.919Z,47.1
2018-05-06T05:07:52.912Z,47.03
2018-05-06T05:08:52.915Z,47.1
2018-05-06T05:09:52.960Z,47.52
2018-05-06T05:10:52.930Z,47.36
2018-05-06T05:11:52.965Z,47.1
2018-05-06T05:12:52.937Z,46.64
2018-05-06T05:13:52.951Z,46.34
2018-05-06T05:14:52.910Z,46.5
2018-05-06T05:15:52.964Z,47.16
2018-05-06T05:16:53.032Z,47.21
2018-05-06T05:17:53.012Z,47.18
2018-05-06T05:18:52.950Z,46.96
2018-05-06T05:19:52.927Z,46.62
2018-05-06T05:20:53.229Z,46.19
2018-05-06T05:21:52.985Z,46.92
2018-05-06T05:22:52.912Z,49.65
2018-05-06T05:23:52.955Z,49.58
2018-05-06T05:24:53.065Z,50.14
2018-05-06T05:25:52.991Z,50.07
2018-05-06T05:26:53.032Z,50.2
2018-05-06T05:27:52.969Z,49.75
2018-05-06T05:28:52.948Z,49.8
2018-05-06T05:29:52.938Z,49.64
2018-05-06T05:30:52.994Z,50
2018-05-06T05:31:52.947Z,50.45
2018-05-06T05:32:53.085Z,50.26
2018-05-06T05:33:52.936Z,49.7
2018-05-06T05:34:52.954Z,49.52
2018-05-06T05:35:52.925Z,49.46
2018-05-06T05:36:52.943Z,49.72
2018-05-06T05:37:52.948Z,49.32
2018-05-06T05:38:52.975Z,50.28
2018-05-06T05:39:52.915Z,50.44
2018-05-06T05:40:52.927Z,49.48
2018-05-06T05:41:52.968Z,48.47
2018-05-06T05:42:53.124Z,48.41
2018-05-06T05:43:52.916Z,48.56
2018-05-06T05:44:52.913Z,48.5
2018-05-06T05:45:52.964Z,48.73
2018-05-06T05:46:53.125Z,48.51
2018-05-06T05:47:53.261Z,48.49
2018-05-06T05:48:52.979Z,48.05
2018-05-06T05:49:52.958Z,47.68
2018-05-06T05:50:52.919Z,47.87
2018-05-06T05:51:52.964Z,48.02
2018-05-06T05:52:52.942Z,47.74
2018-05-06T05:53:52.962Z,47.75
2018-05-06T05:54:52.936Z,47.88
2018-05-06T05:55:52.961Z,47.39
2018-05-06T05:56:52.951Z,47.5
2018-05-06T05:57:52.977Z,47.62
2018-05-06T05:58:53.016Z,46.64
2018-05-06T05:59:52.929Z,45.29
2018-05-06T06:00:52.927Z,45.64
2018-05-06T06:01:52.939Z,45.78
2018-05-06T06:02:52.948Z,45.58
2018-05-06T06:03:52.924Z,44.94
2018-05-06T06:04:52.962Z,45.86
2018-05-06T06:05:52.954Z,45.9
2018-05-06T06:06:52.999Z,45.32
2018-05-06T06:07:52.943Z,45.7
2018-05-06T06:08:52.975Z,45.61
2018-05-06T06:09:52.953Z,45.18
2018-05-06T06:10:52.937Z,44.76
2018-05-06T06:11:52.989Z,44.86
2018-05-06T06:12:52.929Z,44.87
2018-05-06T06:13:52.951Z,44.65
2018-05-06T06:14:52.934Z,44.57
2018-05-06T06:15:53.054Z,45.1
2018-05-06T06:16:52.956Z,45.48
2018-05-06T06:17:52.952Z,45.43
2018-05-06T06:18:53.005Z,45.28
2018-05-06T06:19:52.968Z,44.75
2018-05-06T06:20:52.976Z,44.92
2018-05-06T06:21:52.978Z,44.32
2018-05-06T06:22:52.946Z,44.85
2018-05-06T06:23:53.010Z,44.85
2018-05-06T06:24:53.091Z,44.53
2018-05-06T06:25:52.979Z,44.68
2018-05-06T06:26:52.994Z,45.07
2018-05-06T06:27:52.976Z,45.1
2018-05-06T06:28:53.087Z,46.34
2018-05-06T06:29:52.964Z,45.66
2018-05-06T06:30:53.009Z,45.68
2018-05-06T06:31:53.007Z,44.91
2018-05-06T06:32:55.645Z,45.31
2018-05-06T06:33:53.131Z,44.88
2018-05-06T06:34:52.998Z,44.72
2018-05-06T06:35:53.081Z,44.21
2018-05-06T06:36:52.965Z,44.84
2018-05-06T06:37:52.977Z,44.5
2018-05-06T06:38:53.129Z,44.73
2018-05-06T06:39:53.764Z,44.31
2018-05-06T06:40:52.974Z,44.26
2018-05-06T06:41:52.981Z,44.49
2018-05-06T06:42:53.506Z,45.43
2018-05-06T06:43:53.017Z,45.4
2018-05-06T06:44:52.998Z,45.26
2018-05-06T06:45:52.956Z,44.01
2018-05-06T06:46:52.955Z,44.33
2018-05-06T06:47:53.090Z,45.37
2018-05-06T06:48:53.451Z,44.71
2018-05-06T06:49:52.965Z,44.84
2018-05-06T06:50:52.967Z,44.78
2018-05-06T06:51:53.050Z,43.97
2018-05-06T06:52:52.982Z,44.66
2018-05-06T06:53:52.950Z,45.08
2018-05-06T06:54:53.007Z,43.97
2018-05-06T06:55:52.993Z,42.96
2018-05-06T06:56:52.985Z,43.34
2018-05-06T06:57:52.968Z,43.29
2018-05-06T06:58:53.020Z,42.72
2018-05-06T06:59:52.963Z,42.53
2018-05-06T07:00:52.976Z,42.73
2018-05-06T07:01:53.005Z,42.26
2018-05-06T07:02:52.983Z,41.97
2018-05-06T07:03:52.996Z,42.59
2018-05-06T07:04:53.007Z,42.56
2018-05-06T07:05:53.166Z,42.04
2018-05-06T07:06:52.976Z,42.17
2018-05-06T07:07:53.006Z,42.29
2018-05-06T07:08:52.999Z,42.13
2018-05-06T07:09:53.070Z,42.24
2018-05-06T07:10:52.968Z,41.87
2018-05-06T07:11:53.010Z,42.55
2018-05-06T07:12:52.990Z,42.56
2018-05-06T07:13:53.110Z,41.62
2018-05-06T07:14:53.102Z,40.87
2018-05-06T07:15:52.990Z,41.07
2018-05-06T07:16:53.006Z,40.88
2018-05-06T07:17:53.001Z,40.67
2018-05-06T07:18:52.975Z,40.91
2018-05-06T07:19:53.000Z,41.64
2018-05-06T07:20:53.020Z,41.45
2018-05-06T07:21:53.006Z,41.05
2018-05-06T07:22:53.168Z,41.5
2018-05-06T07:23:52.984Z,40.6
2018-05-06T07:24:53.019Z,40.82
2018-05-06T07:25:53.080Z,41.02
2018-05-06T07:26:53.094Z,41.19
2018-05-06T07:27:52.978Z,41.19
2018-05-06T07:28:53.005Z,40.97
2018-05-06T07:29:53.330Z,40.93
2018-05-06T07:30:53.036Z,40.67
2018-05-06T07:31:53.017Z,40.02
2018-05-06T07:32:53.021Z,40.27
2018-05-06T07:33:53.006Z,40.34
2018-05-06T07:34:52.968Z,40.49
2018-05-06T07:35:53.339Z,40.2
2018-05-06T07:36:53.017Z,40.33
2018-05-06T07:37:52.960Z,40.66
2018-05-06T07:38:52.980Z,40.57
2018-05-06T07:39:53.034Z,41.03
2018-05-06T07:40:53.026Z,40.38
2018-05-06T07:41:52.988Z,40.13
2018-05-06T07:42:53.032Z,40.96
2018-05-06T07:43:53.068Z,40.18
2018-05-06T07:44:53.037Z,40.14
2018-05-06T07:45:53.002Z,40.07
2018-05-06T07:46:52.999Z,39.97
2018-05-06T07:47:53.006Z,40.47
2018-05-06T07:48:53.025Z,40.51
2018-05-06T07:49:53.091Z,40.77
2018-05-06T07:50:53.049Z,40.42
2018-05-06T07:51:53.110Z,40.6
2018-05-06T07:52:52.976Z,40.85
2018-05-06T07:53:53.010Z,40.44
2018-05-06T07:54:52.972Z,40.98
2018-05-06T07:55:52.978Z,40.42
2018-05-06T07:56:53.004Z,40.41
2018-05-06T07:57:53.011Z,40.82
2018-05-06T07:58:53.213Z,40.23
2018-05-06T07:59:53.013Z,40.1
2018-05-06T08:00:53.018Z,39.88
2018-05-06T08:01:52.996Z,39.33
2018-05-06T08:02:52.978Z,39.63
2018-05-06T08:03:53.024Z,39.69
2018-05-06T08:04:53.336Z,40.21
2018-05-06T08:05:53.027Z,40.25
2018-05-06T08:06:53.000Z,40.56
2018-05-06T08:07:52.983Z,40.44
2018-05-06T08:08:52.993Z,40.85
2018-05-06T08:09:53.021Z,40.8
2018-05-06T08:10:53.390Z,41.26
2018-05-06T08:11:52.984Z,41.73
2018-05-06T08:12:52.991Z,40.33
2018-05-06T08:13:53.020Z,40.78
2018-05-06T08:14:53.017Z,40.34
2018-05-06T08:15:52.995Z,39.93
2018-05-06T08:16:52.996Z,40.68
2018-05-06T08:17:53.016Z,40.52
2018-05-06T08:18:53.012Z,40.34
2018-05-06T08:19:53.003Z,40.78
2018-05-06T08:20:53.077Z,41.68
2018-05-06T08:21:53.303Z,40.75
2018-05-06T08:22:53.042Z,41.12
2018-05-06T08:23:52.990Z,41.83
2018-05-06T08:24:53.012Z,41.21
2018-05-06T08:25:53.059Z,40.54
2018-05-06T08:26:52.987Z,40.57
2018-05-06T08:27:53.043Z,40.48
2018-05-06T08:28:53.085Z,40.45
2018-05-06T08:29:53.108Z,40.47
2018-05-06T08:30:53.014Z,40.39
2018-05-06T08:31:53.003Z,40.77
2018-05-06T08:32:53.016Z,40.73
2018-05-06T08:33:53.033Z,40.32
2018-05-06T08:34:53.018Z,40.4
2018-05-06T08:35:52.995Z,40.87
2018-05-06T08:36:53.049Z,41.06
2018-05-06T08:37:53.019Z,40.97
2018-05-06T08:38:53.012Z,40.34
2018-05-06T08:39:53.036Z,39.75
2018-05-06T08:40:53.034Z,40.84
2018-05-06T08:41:55.405Z,40.57
2018-05-06T08:42:53.019Z,40.29
2018-05-06T08:43:53.105Z,41.4
2018-05-06T08:44:54.958Z,41.26
2018-05-06T08:45:53.366Z,41.14
2018-05-06T08:46:53.021Z,41.26
2018-05-06T08:47:54.531Z,39.9
2018-05-06T08:48:55.338Z,40.24
2018-05-06T08:49:53.035Z,40.46
2018-05-06T08:50:53.188Z,40.69
2018-05-06T08:51:53.045Z,39.76
2018-05-06T08:52:54.581Z,39.99
2018-05-06T08:53:53.082Z,40.36
2018-05-06T08:54:57.811Z,39.77
2018-05-06T08:55:53.036Z,40.15
2018-05-06T08:56:53.119Z,41.42
2018-05-06T08:57:53.083Z,41.73
2018-05-06T08:58:53.035Z,41.43
2018-05-06T08:59:53.247Z,41.23
2018-05-06T09:00:53.125Z,40.88
2018-05-06T09:01:53.182Z,41.11
2018-05-06T09:02:53.049Z,40.73
2018-05-06T09:03:53.125Z,40.59
2018-05-06T09:04:53.932Z,39.77
2018-05-06T09:05:53.061Z,40.94
2018-05-06T09:06:54.685Z,40.55
2018-05-06T09:07:53.504Z,40.65
2018-05-06T09:08:53.096Z,40.83
2018-05-06T09:09:53.057Z,41.01
2018-05-06T09:10:53.036Z,39.68
2018-05-06T09:11:53.019Z,39.58
2018-05-06T09:12:53.038Z,40.43
2018-05-06T09:13:53.053Z,40.05
2018-05-06T09:14:53.081Z,41.2
2018-05-06T09:15:53.034Z,41.21
2018-05-06T09:16:53.731Z,40.71
2018-05-06T09:17:53.376Z,40.67
2018-05-06T09:18:53.229Z,39.89
2018-05-06T09:19:53.287Z,40.99
2018-05-06T09:20:53.110Z,41.16
2018-05-06T09:21:53.081Z,40.66
2018-05-06T09:22:53.073Z,42.1
2018-05-06T09:23:53.152Z,40.5
2018-05-06T09:24:53.058Z,40.98
2018-05-06T09:25:53.072Z,41.16
2018-05-06T09:26:54.505Z,40.88
2018-05-06T09:27:56.278Z,39.96
2018-05-06T09:28:53.024Z,39.84
2018-05-06T09:29:53.065Z,39.65
2018-05-06T09:30:53.081Z,39.45
2018-05-06T09:31:54.110Z,40.29
2018-05-06T09:32:53.037Z,41.04
2018-05-06T09:33:53.142Z,39.93
2018-05-06T09:34:53.134Z,39.86
2018-05-06T09:35:53.075Z,40.04
2018-05-06T09:36:53.050Z,40.38
2018-05-06T09:37:53.068Z,39.81
2018-05-06T09:38:53.053Z,40.16
2018-05-06T09:39:53.062Z,40.53
2018-05-06T09:40:53.074Z,40.52
2018-05-06T09:41:53.085Z,40.45
2018-05-06T09:42:53.059Z,40.81
2018-05-06T09:43:53.053Z,40.94
2018-05-06T09:44:53.075Z,42.25
2018-05-06T09:45:53.055Z,41.02
2018-05-06T09:46:53.167Z,39.86
2018-05-06T09:47:53.350Z,40.31
2018-05-06T09:48:53.059Z,39.56
2018-05-06T09:49:53.287Z,39.38
2018-05-06T09:50:53.048Z,39.44
2018-05-06T09:51:53.094Z,39.76
2018-05-06T09:52:53.073Z,39.71
2018-05-06T09:53:53.436Z,41.01
2018-05-06T09:54:53.258Z,40.72
2018-05-06T09:55:53.109Z,40.11
2018-05-06T09:56:53.047Z,39.66
2018-05-06T09:57:53.159Z,40.11
2018-05-06T09:58:53.091Z,40.19
2018-05-06T09:59:53.064Z,40.19
2018-05-06T10:00:53.042Z,40.17
2018-05-06T10:01:53.135Z,40.85
2018-05-06T10:02:53.058Z,41.39
2018-05-06T10:03:53.039Z,40.76
2018-05-06T10:04:53.108Z,40.29
2018-05-06T10:06:53.294Z,39.21
2018-05-06T10:07:53.116Z,38.78
2018-05-06T10:08:53.095Z,38.34
2018-05-06T10:09:53.089Z,38.46
2018-05-06T10:10:53.209Z,38.29
2018-05-06T10:11:53.195Z,37.84
2018-05-06T10:12:53.176Z,38.91
2018-05-06T10:13:53.079Z,38.07
2018-05-06T10:14:53.240Z,38.49
2018-05-06T10:15:53.423Z,39.22
2018-05-06T10:16:53.281Z,39.36
2018-05-06T10:17:53.156Z,39.42
2018-05-06T10:18:53.162Z,39.27
2018-05-06T10:19:53.224Z,38.64
2018-05-06T10:20:53.099Z,38.3
2018-05-06T10:21:53.253Z,37.96
2018-05-06T10:22:53.098Z,37.47
2018-05-06T10:23:53.127Z,37.32
2018-05-06T10:24:53.311Z,37.5
2018-05-06T10:25:53.073Z,37.84
2018-05-06T10:26:53.094Z,37.62
2018-05-06T10:27:53.228Z,37.91
2018-05-06T10:28:53.231Z,37.17
2018-05-06T10:29:56.107Z,37.64
2018-05-06T10:30:53.124Z,37.34
2018-05-06T10:31:53.276Z,36.9
2018-05-06T10:32:53.362Z,35.8
2018-05-06T10:33:53.097Z,36.18
2018-05-06T10:34:53.296Z,36.63
2018-05-06T10:35:53.132Z,36.04
2018-05-06T10:36:53.256Z,36.71
2018-05-06T10:37:53.091Z,35.84
2018-05-06T10:38:53.289Z,35.65
2018-05-06T10:39:53.329Z,35.76
2018-05-06T10:40:53.102Z,35.45
2018-05-06T10:41:53.338Z,35.69
2018-05-06T10:42:53.106Z,35.87
2018-05-06T10:43:53.253Z,34.91
2018-05-06T10:44:53.376Z,35.27
2018-05-06T10:45:53.333Z,35.06
2018-05-06T10:46:53.348Z,34.07
2018-05-06T10:47:53.261Z,34.96
2018-05-06T10:48:53.350Z,34.88
2018-05-06T10:49:53.232Z,35.43
2018-05-06T10:50:53.791Z,34.98
2018-05-06T10:51:53.185Z,35.34
2018-05-06T10:52:53.106Z,34.89
2018-05-06T10:53:53.105Z,34.49
2018-05-06T10:54:53.624Z,34.32
2018-05-06T10:55:53.306Z,34.42
2018-05-06T10:56:53.330Z,34.31
2018-05-06T10:57:53.668Z,34.18
2018-05-06T10:58:53.118Z,34.4
2018-05-06T10:59:53.108Z,34.31
2018-05-06T11:00:53.556Z,34.31
2018-05-06T11:01:53.122Z,35.1
2018-05-06T11:02:53.084Z,35.14
2018-05-06T11:03:53.254Z,34.27
2018-05-06T11:04:53.142Z,34.23
2018-05-06T11:05:53.100Z,33.77
2018-05-06T11:06:53.092Z,33.91
2018-05-06T11:07:53.108Z,34.23
2018-05-06T11:08:53.130Z,33.66
2018-05-06T11:09:53.114Z,33.77
2018-05-06T11:10:53.138Z,33.08
2018-05-06T11:11:53.140Z,32.87
2018-05-06T11:12:53.250Z,32.87
2018-05-06T11:13:53.132Z,33.84
2018-05-06T11:14:53.248Z,33.06
2018-05-06T11:15:53.112Z,33
2018-05-06T11:16:53.111Z,33.35
2018-05-06T11:17:53.961Z,33.71
2018-05-06T11:18:53.454Z,33.91
2018-05-06T11:19:53.210Z,33.37
2018-05-06T11:20:53.281Z,33.12
2018-05-06T11:21:53.133Z,33.54
2018-05-06T11:22:53.370Z,32.8
2018-05-06T11:23:53.309Z,32.79
2018-05-06T11:24:53.145Z,33.52
2018-05-06T11:25:53.155Z,32.45
2018-05-06T11:26:53.139Z,33.11
2018-05-06T11:27:53.125Z,33.05
2018-05-06T11:28:53.161Z,32.27
2018-05-06T11:29:53.108Z,32.55
2018-05-06T11:30:53.133Z,32.02
2018-05-06T11:31:53.246Z,31.9
2018-05-06T11:32:53.171Z,31.96
2018-05-06T11:33:53.109Z,32.56
2018-05-06T11:34:53.176Z,32.4
2018-05-06T11:35:53.130Z,31.86
2018-05-06T11:36:53.130Z,31.78
2018-05-06T11:37:53.132Z,32.31
2018-05-06T11:38:53.128Z,31.4
2018-05-06T11:39:53.154Z,31.77
2018-05-06T11:40:53.277Z,31.2
2018-05-06T11:41:53.167Z,31.58
2018-05-06T11:42:53.177Z,31.87
2018-05-06T11:43:53.140Z,31.83
2018-05-06T11:44:53.147Z,32.31
2018-05-06T11:45:53.163Z,32.65
2018-05-06T11:46:53.198Z,32.72
2018-05-06T11:47:53.141Z,31.99
2018-05-06T11:48:53.140Z,32.26
2018-05-06T11:49:53.152Z,31.6
2018-05-06T11:50:53.160Z,31.51
2018-05-06T11:51:53.176Z,31.67
2018-05-06T11:52:53.184Z,32.25
2018-05-06T11:53:53.206Z,31.5
2018-05-06T11:54:53.269Z,31.76
2018-05-06T11:55:53.422Z,31.73
2018-05-06T11:56:53.155Z,31.81
2018-05-06T11:57:53.147Z,31.18
2018-05-06T11:58:53.132Z,31.06
2018-05-06T11:59:53.190Z,30.75
2018-05-06T12:00:53.148Z,30.54
2018-05-06T12:01:53.156Z,30.21
2018-05-06T12:02:53.193Z,31.36
2018-05-06T12:03:53.161Z,31.22
2018-05-06T12:04:53.173Z,30.79
2018-05-06T12:05:53.184Z,30.83
2018-05-06T12:06:53.160Z,30.6
2018-05-06T12:07:53.150Z,30.48
2018-05-06T12:08:53.167Z,30.32
2018-05-06T12:09:53.398Z,30.67
2018-05-06T12:10:53.166Z,30.04
2018-05-06T12:11:53.217Z,29.39
2018-05-06T12:12:53.145Z,29.67
2018-05-06T12:13:53.315Z,30.31
2018-05-06T12:14:53.164Z,29.51
2018-05-06T12:15:53.497Z,29.16
2018-05-06T12:16:53.160Z,29.71
2018-05-06T12:17:53.186Z,29.98
2018-05-06T12:18:53.171Z,30.3
2018-05-06T12:19:53.177Z,29.72
2018-05-06T12:20:53.192Z,30.32
2018-05-06T12:21:53.385Z,29.32
2018-05-06T12:22:53.309Z,29.27
2018-05-06T12:23:53.468Z,29.31
2018-05-06T12:24:53.171Z,29.27
2018-05-06T12:25:53.146Z,29.66
2018-05-06T12:26:53.178Z,29.52
2018-05-06T12:27:53.200Z,29.75
2018-05-06T12:28:53.159Z,29.45
2018-05-06T12:29:53.161Z,28.88
2018-05-06T12:30:53.186Z,29.29
2018-05-06T12:31:53.245Z,29.73
2018-05-06T12:32:53.165Z,29.43
2018-05-06T12:33:53.175Z,29.83
2018-05-06T12:34:53.200Z,29.63
2018-05-06T12:35:53.163Z,29.14
2018-05-06T12:36:53.194Z,29.25
2018-05-06T12:37:53.174Z,29.34
2018-05-06T12:38:53.194Z,29.95
2018-05-06T12:39:53.167Z,29.64
2018-05-06T12:40:53.142Z,29.07
2018-05-06T12:41:53.190Z,28.82
2018-05-06T12:42:53.173Z,29.67
2018-05-06T12:43:53.165Z,29.04
2018-05-06T12:44:53.162Z,29.59
2018-05-06T12:45:53.172Z,29.17
2018-05-06T12:46:53.360Z,28.69
2018-05-06T12:47:53.360Z,29.17
2018-05-06T12:48:53.198Z,28.7
2018-05-06T12:49:53.202Z,29.02
2018-05-06T12:50:53.390Z,29.06
2018-05-06T12:51:53.393Z,29.15
2018-05-06T12:52:53.391Z,29.79
2018-05-06T12:53:53.434Z,28.91
2018-05-06T12:54:53.605Z,29.96
2018-05-06T12:55:53.236Z,28.72
2018-05-06T12:56:53.359Z,28.88